sensor_id;sensor_type;location;lat;lon;timestamp;P1;durP1;ratioP1;P2;durP2;ratioP2
82163;SDS011;71736;38.734;-9.138;2023-08-21T00:00:14;4.00;;;1.10;;
82163;SDS011;71736;38.734;-9.138;2023-08-21T00:02:40;3.40;;;1.10;;
82163;SDS011;71736;38.734;-9.138;2023-08-21T00:05:05;5.30;;;1.30;;
82163;SDS011;71736;38.734;-9.138;2023-08-21T00:07:31;5.10;;;1.90;;
82163;SDS011;71736;38.734;-9.138;2023-08-21T00:09:57;3.40;;;1.30;;
82163;SDS011;71736;38.734;-9.138;2023-08-21T00:12:22;4.50;;;1.40;;
82163;SDS011;71736;38.734;-9.138;2023-08-21T00:14:48;3.50;;;1.10;;
82163;SDS011;71736;38.734;-9.138;2023-08-21T00:17:13;3.90;;;1.00;;
82163;SDS011;71736;38.734;-9.138;2023-08-21T00:19:39;4.90;;;1.20;;
82163;SDS011;71736;38.734;-9.138;2023-08-21T00:22:04;3.90;;;0.90;;
82163;SDS011;71736;38.734;-9.138;2023-08-21T00:24:30;2.70;;;1.00;;
82163;SDS011;71736;38.734;-9.138;2023-08-21T00:26:55;4.80;;;1.60;;
82163;SDS011;71736;38.734;-9.138;2023-08-21T00:29:21;4.00;;;1.30;;
82163;SDS011;71736;38.734;-9.138;2023-08-21T00:31:46;4.10;;;1.30;;
82163;SDS011;71736;38.734;-9.138;2023-08-21T00:34:12;3.70;;;1.30;;
82163;SDS011;71736;38.734;-9.138;2023-08-21T00:36:37;6.40;;;1.50;;
82163;SDS011;71736;38.734;-9.138;2023-08-21T00:39:03;5.10;;;1.60;;
82163;SDS011;71736;38.734;-9.138;2023-08-21T00:41:28;4.90;;;1.50;;
82163;SDS011;71736;38.734;-9.138;2023-08-21T00:43:54;4.90;;;1.40;;
82163;SDS011;71736;38.734;-9.138;2023-08-21T00:46:19;5.20;;;1.60;;
82163;SDS011;71736;38.734;-9.138;2023-08-21T00:48:45;6.40;;;1.80;;
82163;SDS011;71736;38.734;-9.138;2023-08-21T00:51:11;3.90;;;1.50;;
82163;SDS011;71736;38.734;-9.138;2023-08-21T00:53:37;4.30;;;1.60;;
82163;SDS011;71736;38.734;-9.138;2023-08-21T00:56:03;4.30;;;1.80;;
82163;SDS011;71736;38.734;-9.138;2023-08-21T00:58:29;3.20;;;1.20;;
82163;SDS011;71736;38.734;-9.138;2023-08-21T01:00:55;3.40;;;1.30;;
82163;SDS011;71736;38.734;-9.138;2023-08-21T01:03:20;4.70;;;1.40;;
82163;SDS011;71736;38.734;-9.138;2023-08-21T01:05:46;4.30;;;1.50;;
82163;SDS011;71736;38.734;-9.138;2023-08-21T01:08:18;5.80;;;1.60;;
82163;SDS011;71736;38.734;-9.138;2023-08-21T01:11:02;4.80;;;1.60;;
82163;SDS011;71736;38.734;-9.138;2023-08-21T01:16:21;4.70;;;1.50;;
82163;SDS011;71736;38.734;-9.138;2023-08-21T01:18:48;4.00;;;1.50;;
82163;SDS011;71736;38.734;-9.138;2023-08-21T01:21:14;4.00;;;1.50;;
82163;SDS011;71736;38.734;-9.138;2023-08-21T01:23:40;6.00;;;1.50;;
82163;SDS011;71736;38.734;-9.138;2023-08-21T01:26:09;5.50;;;1.20;;
82163;SDS011;71736;38.734;-9.138;2023-08-21T01:28:35;4.20;;;1.30;;
82163;SDS011;71736;38.734;-9.138;2023-08-21T01:31:08;4.80;;;1.30;;
82163;SDS011;71736;38.734;-9.138;2023-08-21T01:33:45;4.10;;;1.60;;
82163;SDS011;71736;38.734;-9.138;2023-08-21T01:36:13;4.10;;;1.20;;
82163;SDS011;71736;38.734;-9.138;2023-08-21T01:41:04;3.20;;;1.40;;
82163;SDS011;71736;38.734;-9.138;2023-08-21T01:43:30;4.60;;;1.40;;
82163;SDS011;71736;38.734;-9.138;2023-08-21T01:45:55;5.80;;;1.50;;
82163;SDS011;71736;38.734;-9.138;2023-08-21T01:48:21;3.80;;;1.30;;
82163;SDS011;71736;38.734;-9.138;2023-08-21T01:50:46;4.00;;;1.50;;
82163;SDS011;71736;38.734;-9.138;2023-08-21T01:53:12;4.00;;;1.50;;
82163;SDS011;71736;38.734;-9.138;2023-08-21T01:55:37;4.60;;;1.80;;
82163;SDS011;71736;38.734;-9.138;2023-08-21T01:58:03;4.10;;;1.40;;
82163;SDS011;71736;38.734;-9.138;2023-08-21T02:00:29;3.90;;;1.60;;
82163;SDS011;71736;38.734;-9.138;2023-08-21T02:02:54;7.80;;;1.30;;
82163;SDS011;71736;38.734;-9.138;2023-08-21T02:05:20;2.90;;;1.20;;
82163;SDS011;71736;38.734;-9.138;2023-08-21T02:07:45;3.60;;;1.40;;
82163;SDS011;71736;38.734;-9.138;2023-08-21T02:10:11;4.00;;;1.60;;
82163;SDS011;71736;38.734;-9.138;2023-08-21T02:12:36;4.30;;;1.40;;
82163;SDS011;71736;38.734;-9.138;2023-08-21T02:15:02;5.10;;;2.00;;
82163;SDS011;71736;38.734;-9.138;2023-08-21T02:17:29;5.00;;;1.60;;
82163;SDS011;71736;38.734;-9.138;2023-08-21T02:19:55;5.60;;;1.70;;
82163;SDS011;71736;38.734;-9.138;2023-08-21T02:22:20;4.20;;;1.70;;
82163;SDS011;71736;38.734;-9.138;2023-08-21T02:24:46;5.60;;;2.20;;
82163;SDS011;71736;38.734;-9.138;2023-08-21T02:27:12;4.20;;;1.60;;
82163;SDS011;71736;38.734;-9.138;2023-08-21T02:29:37;5.60;;;1.50;;
82163;SDS011;71736;38.734;-9.138;2023-08-21T02:32:03;5.10;;;1.90;;
82163;SDS011;71736;38.734;-9.138;2023-08-21T02:34:28;6.30;;;2.10;;
82163;SDS011;71736;38.734;-9.138;2023-08-21T02:36:54;6.80;;;1.80;;
82163;SDS011;71736;38.734;-9.138;2023-08-21T02:39:19;6.00;;;1.90;;
82163;SDS011;71736;38.734;-9.138;2023-08-21T02:41:45;5.70;;;1.60;;
82163;SDS011;71736;38.734;-9.138;2023-08-21T02:44:10;6.90;;;1.60;;
82163;SDS011;71736;38.734;-9.138;2023-08-21T02:46:36;4.60;;;1.40;;
82163;SDS011;71736;38.734;-9.138;2023-08-21T02:49:02;5.30;;;1.40;;
82163;SDS011;71736;38.734;-9.138;2023-08-21T02:51:27;6.40;;;2.10;;
82163;SDS011;71736;38.734;-9.138;2023-08-21T02:53:53;4.80;;;1.20;;
82163;SDS011;71736;38.734;-9.138;2023-08-21T02:56:19;4.10;;;1.40;;
82163;SDS011;71736;38.734;-9.138;2023-08-21T02:58:44;8.80;;;2.00;;
82163;SDS011;71736;38.734;-9.138;2023-08-21T03:01:10;6.50;;;1.60;;
82163;SDS011;71736;38.734;-9.138;2023-08-21T03:03:36;6.40;;;1.90;;
82163;SDS011;71736;38.734;-9.138;2023-08-21T03:06:02;5.70;;;1.60;;
82163;SDS011;71736;38.734;-9.138;2023-08-21T03:08:28;6.70;;;1.70;;
82163;SDS011;71736;38.734;-9.138;2023-08-21T03:10:53;4.60;;;1.30;;
82163;SDS011;71736;38.734;-9.138;2023-08-21T03:13:19;4.80;;;1.50;;
82163;SDS011;71736;38.734;-9.138;2023-08-21T03:15:44;4.50;;;1.50;;
82163;SDS011;71736;38.734;-9.138;2023-08-21T03:18:10;4.00;;;1.30;;
82163;SDS011;71736;38.734;-9.138;2023-08-21T03:20:35;4.70;;;1.50;;
82163;SDS011;71736;38.734;-9.138;2023-08-21T03:23:01;7.20;;;1.80;;
82163;SDS011;71736;38.734;-9.138;2023-08-21T03:25:27;5.40;;;1.60;;
82163;SDS011;71736;38.734;-9.138;2023-08-21T03:27:53;5.00;;;1.50;;
82163;SDS011;71736;38.734;-9.138;2023-08-21T03:30:18;6.80;;;1.50;;
82163;SDS011;71736;38.734;-9.138;2023-08-21T03:32:44;5.50;;;1.40;;
82163;SDS011;71736;38.734;-9.138;2023-08-21T03:35:10;4.70;;;1.90;;
82163;SDS011;71736;38.734;-9.138;2023-08-21T03:37:35;6.40;;;1.30;;
82163;SDS011;71736;38.734;-9.138;2023-08-21T03:40:02;4.10;;;1.40;;
82163;SDS011;71736;38.734;-9.138;2023-08-21T03:42:28;4.40;;;1.40;;
82163;SDS011;71736;38.734;-9.138;2023-08-21T03:44:54;4.90;;;1.50;;
82163;SDS011;71736;38.734;-9.138;2023-08-21T03:47:19;5.70;;;1.80;;
82163;SDS011;71736;38.734;-9.138;2023-08-21T03:49:45;6.50;;;1.60;;
82163;SDS011;71736;38.734;-9.138;2023-08-21T03:52:13;6.90;;;1.50;;
82163;SDS011;71736;38.734;-9.138;2023-08-21T03:54:39;5.20;;;1.30;;
82163;SDS011;71736;38.734;-9.138;2023-08-21T03:57:04;7.20;;;1.70;;
82163;SDS011;71736;38.734;-9.138;2023-08-21T03:59:30;6.80;;;1.40;;
82163;SDS011;71736;38.734;-9.138;2023-08-21T04:01:55;5.70;;;1.80;;
82163;SDS011;71736;38.734;-9.138;2023-08-21T04:04:21;6.20;;;1.40;;
82163;SDS011;71736;38.734;-9.138;2023-08-21T04:06:46;8.20;;;1.60;;
82163;SDS011;71736;38.734;-9.138;2023-08-21T04:09:12;5.00;;;1.50;;
82163;SDS011;71736;38.734;-9.138;2023-08-21T04:11:37;5.90;;;1.50;;
82163;SDS011;71736;38.734;-9.138;2023-08-21T04:14:03;5.90;;;1.40;;
82163;SDS011;71736;38.734;-9.138;2023-08-21T04:16:29;5.60;;;1.30;;
82163;SDS011;71736;38.734;-9.138;2023-08-21T04:21:21;5.10;;;1.30;;
82163;SDS011;71736;38.734;-9.138;2023-08-21T04:23:46;11.20;;;1.60;;
82163;SDS011;71736;38.734;-9.138;2023-08-21T04:26:12;3.50;;;1.30;;
82163;SDS011;71736;38.734;-9.138;2023-08-21T04:28:37;4.70;;;1.20;;
82163;SDS011;71736;38.734;-9.138;2023-08-21T04:31:06;4.90;;;1.30;;
82163;SDS011;71736;38.734;-9.138;2023-08-21T04:33:32;4.00;;;1.20;;
82163;SDS011;71736;38.734;-9.138;2023-08-21T04:35:58;4.50;;;1.30;;
82163;SDS011;71736;38.734;-9.138;2023-08-21T04:38:24;4.80;;;1.40;;
82163;SDS011;71736;38.734;-9.138;2023-08-21T04:40:50;4.20;;;1.10;;
82163;SDS011;71736;38.734;-9.138;2023-08-21T04:43:16;5.30;;;1.60;;
82163;SDS011;71736;38.734;-9.138;2023-08-21T04:45:48;3.60;;;1.40;;
82163;SDS011;71736;38.734;-9.138;2023-08-21T04:48:20;4.10;;;1.20;;
82163;SDS011;71736;38.734;-9.138;2023-08-21T04:50:46;3.50;;;1.10;;
82163;SDS011;71736;38.734;-9.138;2023-08-21T04:53:12;5.40;;;1.60;;
82163;SDS011;71736;38.734;-9.138;2023-08-21T04:55:39;3.40;;;1.10;;
82163;SDS011;71736;38.734;-9.138;2023-08-21T04:58:06;5.10;;;1.50;;
82163;SDS011;71736;38.734;-9.138;2023-08-21T05:00:32;2.50;;;1.10;;
82163;SDS011;71736;38.734;-9.138;2023-08-21T05:02:57;5.70;;;1.10;;
82163;SDS011;71736;38.734;-9.138;2023-08-21T05:05:23;4.40;;;1.20;;
82163;SDS011;71736;38.734;-9.138;2023-08-21T05:07:49;4.70;;;1.60;;
82163;SDS011;71736;38.734;-9.138;2023-08-21T05:10:14;5.60;;;1.90;;
82163;SDS011;71736;38.734;-9.138;2023-08-21T05:12:40;3.70;;;1.20;;
82163;SDS011;71736;38.734;-9.138;2023-08-21T05:15:06;5.70;;;1.60;;
82163;SDS011;71736;38.734;-9.138;2023-08-21T05:17:31;3.80;;;1.10;;
82163;SDS011;71736;38.734;-9.138;2023-08-21T05:19:57;12.90;;;1.60;;
82163;SDS011;71736;38.734;-9.138;2023-08-21T05:22:22;3.60;;;1.00;;
82163;SDS011;71736;38.734;-9.138;2023-08-21T05:24:48;5.60;;;1.30;;
82163;SDS011;71736;38.734;-9.138;2023-08-21T05:27:13;4.00;;;1.50;;
82163;SDS011;71736;38.734;-9.138;2023-08-21T05:29:39;4.50;;;1.60;;
82163;SDS011;71736;38.734;-9.138;2023-08-21T05:32:05;4.20;;;1.20;;
82163;SDS011;71736;38.734;-9.138;2023-08-21T05:34:30;3.80;;;1.30;;
82163;SDS011;71736;38.734;-9.138;2023-08-21T05:36:56;3.10;;;1.00;;
82163;SDS011;71736;38.734;-9.138;2023-08-21T05:39:22;7.70;;;1.40;;
82163;SDS011;71736;38.734;-9.138;2023-08-21T05:41:47;5.60;;;1.50;;
82163;SDS011;71736;38.734;-9.138;2023-08-21T05:44:13;6.70;;;1.90;;
82163;SDS011;71736;38.734;-9.138;2023-08-21T05:46:38;5.80;;;1.40;;
82163;SDS011;71736;38.734;-9.138;2023-08-21T05:49:04;3.10;;;1.00;;
82163;SDS011;71736;38.734;-9.138;2023-08-21T05:51:29;4.20;;;1.30;;
82163;SDS011;71736;38.734;-9.138;2023-08-21T05:53:55;3.00;;;1.20;;
82163;SDS011;71736;38.734;-9.138;2023-08-21T05:56:21;8.90;;;5.90;;
82163;SDS011;71736;38.734;-9.138;2023-08-21T05:58:47;4.50;;;1.50;;
82163;SDS011;71736;38.734;-9.138;2023-08-21T06:01:13;6.70;;;1.50;;
82163;SDS011;71736;38.734;-9.138;2023-08-21T06:03:38;6.70;;;1.40;;
82163;SDS011;71736;38.734;-9.138;2023-08-21T06:06:04;4.60;;;1.60;;
82163;SDS011;71736;38.734;-9.138;2023-08-21T06:08:30;4.90;;;1.60;;
82163;SDS011;71736;38.734;-9.138;2023-08-21T06:10:55;4.10;;;1.50;;
82163;SDS011;71736;38.734;-9.138;2023-08-21T06:13:21;5.90;;;1.80;;
82163;SDS011;71736;38.734;-9.138;2023-08-21T06:15:46;5.30;;;1.50;;
82163;SDS011;71736;38.734;-9.138;2023-08-21T06:18:13;3.60;;;1.90;;
82163;SDS011;71736;38.734;-9.138;2023-08-21T06:20:41;4.60;;;1.50;;
82163;SDS011;71736;38.734;-9.138;2023-08-21T06:23:08;4.40;;;1.70;;
82163;SDS011;71736;38.734;-9.138;2023-08-21T06:25:34;2.70;;;1.30;;
82163;SDS011;71736;38.734;-9.138;2023-08-21T06:27:59;4.80;;;1.50;;
82163;SDS011;71736;38.734;-9.138;2023-08-21T06:30:26;4.80;;;1.90;;
82163;SDS011;71736;38.734;-9.138;2023-08-21T06:32:52;4.50;;;1.40;;
82163;SDS011;71736;38.734;-9.138;2023-08-21T06:35:17;7.80;;;1.60;;
82163;SDS011;71736;38.734;-9.138;2023-08-21T06:37:43;5.30;;;1.60;;
82163;SDS011;71736;38.734;-9.138;2023-08-21T06:40:09;4.80;;;1.60;;
82163;SDS011;71736;38.734;-9.138;2023-08-21T06:42:34;5.00;;;1.60;;
82163;SDS011;71736;38.734;-9.138;2023-08-21T06:45:00;5.40;;;1.80;;
82163;SDS011;71736;38.734;-9.138;2023-08-21T06:47:26;7.20;;;2.50;;
82163;SDS011;71736;38.734;-9.138;2023-08-21T06:49:51;10.50;;;5.20;;
82163;SDS011;71736;38.734;-9.138;2023-08-21T06:52:17;5.40;;;1.90;;
82163;SDS011;71736;38.734;-9.138;2023-08-21T06:54:42;5.80;;;1.80;;
82163;SDS011;71736;38.734;-9.138;2023-08-21T06:57:08;5.70;;;1.90;;
82163;SDS011;71736;38.734;-9.138;2023-08-21T06:59:33;5.90;;;1.30;;
82163;SDS011;71736;38.734;-9.138;2023-08-21T07:02:03;4.40;;;1.50;;
82163;SDS011;71736;38.734;-9.138;2023-08-21T07:04:29;4.50;;;1.40;;
82163;SDS011;71736;38.734;-9.138;2023-08-21T07:06:55;5.50;;;1.60;;
82163;SDS011;71736;38.734;-9.138;2023-08-21T07:09:20;5.30;;;1.50;;
82163;SDS011;71736;38.734;-9.138;2023-08-21T07:11:46;4.90;;;1.60;;
82163;SDS011;71736;38.734;-9.138;2023-08-21T07:14:11;5.20;;;1.60;;
82163;SDS011;71736;38.734;-9.138;2023-08-21T07:16:39;4.30;;;1.40;;
82163;SDS011;71736;38.734;-9.138;2023-08-21T07:19:05;6.20;;;1.60;;
82163;SDS011;71736;38.734;-9.138;2023-08-21T07:21:30;6.60;;;1.80;;
82163;SDS011;71736;38.734;-9.138;2023-08-21T07:23:56;6.60;;;1.90;;
82163;SDS011;71736;38.734;-9.138;2023-08-21T07:26:22;5.30;;;1.50;;
82163;SDS011;71736;38.734;-9.138;2023-08-21T07:28:47;4.80;;;1.40;;
82163;SDS011;71736;38.734;-9.138;2023-08-21T07:31:13;6.10;;;2.00;;
82163;SDS011;71736;38.734;-9.138;2023-08-21T07:33:38;4.80;;;1.90;;
82163;SDS011;71736;38.734;-9.138;2023-08-21T07:36:04;5.70;;;1.60;;
82163;SDS011;71736;38.734;-9.138;2023-08-21T07:38:30;6.30;;;2.00;;
82163;SDS011;71736;38.734;-9.138;2023-08-21T07:41:03;6.80;;;1.60;;
82163;SDS011;71736;38.734;-9.138;2023-08-21T07:43:30;7.30;;;2.40;;
82163;SDS011;71736;38.734;-9.138;2023-08-21T07:45:56;8.20;;;2.10;;
82163;SDS011;71736;38.734;-9.138;2023-08-21T07:48:22;9.90;;;2.00;;
82163;SDS011;71736;38.734;-9.138;2023-08-21T07:50:51;8.40;;;2.50;;
82163;SDS011;71736;38.734;-9.138;2023-08-21T07:53:18;9.30;;;2.10;;
82163;SDS011;71736;38.734;-9.138;2023-08-21T07:55:44;9.10;;;2.30;;
82163;SDS011;71736;38.734;-9.138;2023-08-21T07:58:10;11.30;;;2.30;;
82163;SDS011;71736;38.734;-9.138;2023-08-21T08:00:36;12.00;;;2.30;;
82163;SDS011;71736;38.734;-9.138;2023-08-21T08:05:28;8.10;;;1.90;;
82163;SDS011;71736;38.734;-9.138;2023-08-21T08:07:54;5.80;;;1.90;;
82163;SDS011;71736;38.734;-9.138;2023-08-21T08:10:19;5.50;;;2.00;;
82163;SDS011;71736;38.734;-9.138;2023-08-21T08:12:45;4.60;;;2.10;;
82163;SDS011;71736;38.734;-9.138;2023-08-21T08:15:10;8.90;;;2.30;;
82163;SDS011;71736;38.734;-9.138;2023-08-21T08:17:36;7.00;;;2.20;;
82163;SDS011;71736;38.734;-9.138;2023-08-21T08:20:01;11.10;;;2.30;;
82163;SDS011;71736;38.734;-9.138;2023-08-21T08:22:27;7.20;;;3.30;;
82163;SDS011;71736;38.734;-9.138;2023-08-21T08:24:52;8.80;;;2.70;;
82163;SDS011;71736;38.734;-9.138;2023-08-21T08:27:18;6.80;;;1.90;;
82163;SDS011;71736;38.734;-9.138;2023-08-21T08:29:43;8.30;;;2.00;;
82163;SDS011;71736;38.734;-9.138;2023-08-21T08:32:09;8.90;;;2.80;;
82163;SDS011;71736;38.734;-9.138;2023-08-21T08:34:34;7.50;;;2.20;;
82163;SDS011;71736;38.734;-9.138;2023-08-21T08:37:00;8.70;;;2.30;;
82163;SDS011;71736;38.734;-9.138;2023-08-21T08:39:25;7.20;;;2.50;;
82163;SDS011;71736;38.734;-9.138;2023-08-21T08:41:54;5.10;;;2.40;;
82163;SDS011;71736;38.734;-9.138;2023-08-21T08:46:50;5.50;;;2.10;;
82163;SDS011;71736;38.734;-9.138;2023-08-21T08:51:41;13.60;;;6.30;;
82163;SDS011;71736;38.734;-9.138;2023-08-21T08:54:08;6.90;;;2.40;;
82163;SDS011;71736;38.734;-9.138;2023-08-21T08:58:59;5.70;;;2.70;;
82163;SDS011;71736;38.734;-9.138;2023-08-21T09:01:25;9.60;;;1.90;;
82163;SDS011;71736;38.734;-9.138;2023-08-21T09:03:50;5.20;;;1.90;;
82163;SDS011;71736;38.734;-9.138;2023-08-21T09:06:16;7.20;;;2.80;;
82163;SDS011;71736;38.734;-9.138;2023-08-21T09:08:54;4.50;;;1.60;;
82163;SDS011;71736;38.734;-9.138;2023-08-21T09:11:20;6.10;;;1.60;;
82163;SDS011;71736;38.734;-9.138;2023-08-21T09:13:48;6.70;;;2.40;;
82163;SDS011;71736;38.734;-9.138;2023-08-21T09:16:15;6.60;;;2.40;;
82163;SDS011;71736;38.734;-9.138;2023-08-21T09:18:54;5.10;;;2.20;;
82163;SDS011;71736;38.734;-9.138;2023-08-21T09:21:24;5.80;;;2.60;;
82163;SDS011;71736;38.734;-9.138;2023-08-21T09:24:00;5.40;;;2.10;;
82163;SDS011;71736;38.734;-9.138;2023-08-21T09:26:30;8.10;;;2.20;;
82163;SDS011;71736;38.734;-9.138;2023-08-21T09:29:00;9.20;;;2.30;;
82163;SDS011;71736;38.734;-9.138;2023-08-21T09:31:29;6.40;;;2.40;;
82163;SDS011;71736;38.734;-9.138;2023-08-21T09:33:57;6.20;;;2.50;;
82163;SDS011;71736;38.734;-9.138;2023-08-21T09:36:24;7.50;;;2.70;;
82163;SDS011;71736;38.734;-9.138;2023-08-21T09:38:50;5.20;;;2.40;;
82163;SDS011;71736;38.734;-9.138;2023-08-21T09:41:21;5.60;;;1.90;;
82163;SDS011;71736;38.734;-9.138;2023-08-21T09:43:47;5.90;;;2.70;;
82163;SDS011;71736;38.734;-9.138;2023-08-21T09:46:16;5.80;;;2.20;;
82163;SDS011;71736;38.734;-9.138;2023-08-21T09:48:45;7.50;;;2.50;;
82163;SDS011;71736;38.734;-9.138;2023-08-21T09:51:12;4.70;;;2.10;;
82163;SDS011;71736;38.734;-9.138;2023-08-21T09:53:37;5.60;;;2.40;;
82163;SDS011;71736;38.734;-9.138;2023-08-21T09:56:04;6.00;;;3.20;;
82163;SDS011;71736;38.734;-9.138;2023-08-21T09:58:33;5.50;;;2.80;;
82163;SDS011;71736;38.734;-9.138;2023-08-21T10:01:00;5.50;;;2.40;;
82163;SDS011;71736;38.734;-9.138;2023-08-21T10:03:38;6.30;;;2.50;;
82163;SDS011;71736;38.734;-9.138;2023-08-21T10:06:05;7.40;;;4.40;;
82163;SDS011;71736;38.734;-9.138;2023-08-21T10:08:31;5.40;;;2.10;;
82163;SDS011;71736;38.734;-9.138;2023-08-21T10:10:57;5.20;;;2.80;;
82163;SDS011;71736;38.734;-9.138;2023-08-21T10:13:24;6.10;;;2.50;;
82163;SDS011;71736;38.734;-9.138;2023-08-21T10:15:49;6.50;;;2.60;;
82163;SDS011;71736;38.734;-9.138;2023-08-21T10:18:22;7.60;;;2.60;;
82163;SDS011;71736;38.734;-9.138;2023-08-21T10:20:54;5.70;;;3.00;;
82163;SDS011;71736;38.734;-9.138;2023-08-21T10:23:30;5.50;;;2.90;;
82163;SDS011;71736;38.734;-9.138;2023-08-21T10:25:59;4.70;;;2.50;;
82163;SDS011;71736;38.734;-9.138;2023-08-21T10:34:09;6.90;;;2.40;;
82163;SDS011;71736;38.734;-9.138;2023-08-21T10:42:36;7.10;;;3.50;;
82163;SDS011;71736;38.734;-9.138;2023-08-21T10:44:36;5.50;;;2.70;;
82163;SDS011;71736;38.734;-9.138;2023-08-21T10:47:31;6.40;;;2.40;;
82163;SDS011;71736;38.734;-9.138;2023-08-21T10:50:02;9.00;;;3.00;;
82163;SDS011;71736;38.734;-9.138;2023-08-21T10:52:30;7.70;;;2.80;;
82163;SDS011;71736;38.734;-9.138;2023-08-21T10:54:59;7.20;;;2.30;;
82163;SDS011;71736;38.734;-9.138;2023-08-21T10:57:26;5.90;;;2.60;;
82163;SDS011;71736;38.734;-9.138;2023-08-21T11:02:25;8.50;;;3.90;;
82163;SDS011;71736;38.734;-9.138;2023-08-21T11:04:54;6.50;;;2.60;;
82163;SDS011;71736;38.734;-9.138;2023-08-21T11:09:46;11.80;;;4.50;;
82163;SDS011;71736;38.734;-9.138;2023-08-21T11:12:13;10.70;;;3.90;;
82163;SDS011;71736;38.734;-9.138;2023-08-21T11:14:40;8.80;;;4.00;;
82163;SDS011;71736;38.734;-9.138;2023-08-21T11:17:06;9.70;;;4.70;;
82163;SDS011;71736;38.734;-9.138;2023-08-21T11:19:35;11.40;;;4.10;;
82163;SDS011;71736;38.734;-9.138;2023-08-21T11:22:01;10.20;;;3.80;;
82163;SDS011;71736;38.734;-9.138;2023-08-21T11:27:09;7.80;;;4.00;;
82163;SDS011;71736;38.734;-9.138;2023-08-21T11:29:38;10.50;;;3.90;;
82163;SDS011;71736;38.734;-9.138;2023-08-21T11:32:12;10.00;;;3.90;;
82163;SDS011;71736;38.734;-9.138;2023-08-21T11:34:40;8.90;;;3.90;;
82163;SDS011;71736;38.734;-9.138;2023-08-21T11:37:07;8.00;;;3.40;;
82163;SDS011;71736;38.734;-9.138;2023-08-21T11:39:42;6.40;;;3.20;;
82163;SDS011;71736;38.734;-9.138;2023-08-21T11:42:10;10.70;;;4.40;;
82163;SDS011;71736;38.734;-9.138;2023-08-21T11:44:44;9.60;;;4.10;;
82163;SDS011;71736;38.734;-9.138;2023-08-21T11:47:10;8.80;;;5.00;;
82163;SDS011;71736;38.734;-9.138;2023-08-21T11:49:36;7.10;;;3.50;;
82163;SDS011;71736;38.734;-9.138;2023-08-21T11:52:03;7.90;;;4.30;;
82163;SDS011;71736;38.734;-9.138;2023-08-21T11:54:35;9.40;;;3.60;;
82163;SDS011;71736;38.734;-9.138;2023-08-21T11:57:11;8.60;;;3.60;;
82163;SDS011;71736;38.734;-9.138;2023-08-21T11:59:38;6.80;;;3.70;;
82163;SDS011;71736;38.734;-9.138;2023-08-21T12:02:13;9.50;;;3.90;;
82163;SDS011;71736;38.734;-9.138;2023-08-21T12:04:40;7.30;;;3.00;;
82163;SDS011;71736;38.734;-9.138;2023-08-21T12:07:07;14.30;;;5.30;;
82163;SDS011;71736;38.734;-9.138;2023-08-21T12:09:32;6.30;;;3.20;;
82163;SDS011;71736;38.734;-9.138;2023-08-21T12:11:58;9.30;;;3.40;;
82163;SDS011;71736;38.734;-9.138;2023-08-21T12:14:24;8.90;;;4.00;;
82163;SDS011;71736;38.734;-9.138;2023-08-21T12:16:49;6.50;;;3.40;;
82163;SDS011;71736;38.734;-9.138;2023-08-21T12:19:14;8.20;;;3.70;;
82163;SDS011;71736;38.734;-9.138;2023-08-21T12:21:40;8.70;;;3.00;;
82163;SDS011;71736;38.734;-9.138;2023-08-21T12:24:05;8.50;;;4.00;;
82163;SDS011;71736;38.734;-9.138;2023-08-21T12:26:32;10.00;;;4.20;;
82163;SDS011;71736;38.734;-9.138;2023-08-21T12:28:58;12.30;;;5.60;;
82163;SDS011;71736;38.734;-9.138;2023-08-21T12:31:24;6.70;;;3.30;;
82163;SDS011;71736;38.734;-9.138;2023-08-21T12:33:49;7.30;;;3.90;;
82163;SDS011;71736;38.734;-9.138;2023-08-21T12:36:15;7.60;;;2.80;;
82163;SDS011;71736;38.734;-9.138;2023-08-21T12:38:40;6.90;;;3.40;;
82163;SDS011;71736;38.734;-9.138;2023-08-21T12:41:06;9.70;;;3.30;;
82163;SDS011;71736;38.734;-9.138;2023-08-21T12:43:31;7.00;;;3.30;;
82163;SDS011;71736;38.734;-9.138;2023-08-21T12:45:57;10.70;;;3.60;;
82163;SDS011;71736;38.734;-9.138;2023-08-21T12:48:23;11.40;;;4.10;;
82163;SDS011;71736;38.734;-9.138;2023-08-21T12:50:48;13.10;;;5.10;;
82163;SDS011;71736;38.734;-9.138;2023-08-21T12:53:15;7.90;;;3.30;;
82163;SDS011;71736;38.734;-9.138;2023-08-21T12:55:41;7.90;;;3.20;;
82163;SDS011;71736;38.734;-9.138;2023-08-21T12:58:06;9.00;;;3.60;;
82163;SDS011;71736;38.734;-9.138;2023-08-21T13:00:32;11.40;;;3.90;;
82163;SDS011;71736;38.734;-9.138;2023-08-21T13:02:58;9.70;;;4.30;;
82163;SDS011;71736;38.734;-9.138;2023-08-21T13:05:23;7.00;;;3.40;;
82163;SDS011;71736;38.734;-9.138;2023-08-21T13:07:49;6.00;;;3.00;;
82163;SDS011;71736;38.734;-9.138;2023-08-21T13:10:14;11.20;;;4.00;;
82163;SDS011;71736;38.734;-9.138;2023-08-21T13:12:40;11.10;;;4.40;;
82163;SDS011;71736;38.734;-9.138;2023-08-21T13:15:05;7.00;;;2.50;;
82163;SDS011;71736;38.734;-9.138;2023-08-21T13:17:33;5.90;;;2.80;;
82163;SDS011;71736;38.734;-9.138;2023-08-21T13:19:59;13.30;;;3.90;;
82163;SDS011;71736;38.734;-9.138;2023-08-21T13:22:25;7.30;;;2.80;;
82163;SDS011;71736;38.734;-9.138;2023-08-21T13:24:50;9.80;;;2.90;;
82163;SDS011;71736;38.734;-9.138;2023-08-21T13:27:16;8.60;;;3.20;;
82163;SDS011;71736;38.734;-9.138;2023-08-21T13:29:41;7.40;;;3.30;;
82163;SDS011;71736;38.734;-9.138;2023-08-21T13:32:06;9.80;;;4.50;;
82163;SDS011;71736;38.734;-9.138;2023-08-21T13:34:32;7.50;;;3.50;;
82163;SDS011;71736;38.734;-9.138;2023-08-21T13:36:58;6.10;;;2.70;;
82163;SDS011;71736;38.734;-9.138;2023-08-21T13:39:23;6.70;;;4.00;;
82163;SDS011;71736;38.734;-9.138;2023-08-21T13:41:51;7.80;;;3.90;;
82163;SDS011;71736;38.734;-9.138;2023-08-21T13:44:17;9.30;;;3.20;;
82163;SDS011;71736;38.734;-9.138;2023-08-21T13:46:42;7.80;;;3.00;;
82163;SDS011;71736;38.734;-9.138;2023-08-21T13:49:08;6.20;;;3.50;;
82163;SDS011;71736;38.734;-9.138;2023-08-21T13:51:34;11.50;;;3.60;;
82163;SDS011;71736;38.734;-9.138;2023-08-21T13:54:00;8.30;;;3.20;;
82163;SDS011;71736;38.734;-9.138;2023-08-21T13:56:26;7.90;;;3.40;;
82163;SDS011;71736;38.734;-9.138;2023-08-21T13:58:51;11.40;;;5.20;;
82163;SDS011;71736;38.734;-9.138;2023-08-21T14:01:17;6.90;;;2.80;;
82163;SDS011;71736;38.734;-9.138;2023-08-21T14:03:42;8.30;;;3.60;;
82163;SDS011;71736;38.734;-9.138;2023-08-21T14:06:08;7.20;;;3.00;;
82163;SDS011;71736;38.734;-9.138;2023-08-21T14:08:36;7.30;;;3.60;;
82163;SDS011;71736;38.734;-9.138;2023-08-21T14:11:02;6.30;;;2.90;;
82163;SDS011;71736;38.734;-9.138;2023-08-21T14:13:28;6.20;;;2.60;;
82163;SDS011;71736;38.734;-9.138;2023-08-21T14:15:53;5.70;;;2.70;;
82163;SDS011;71736;38.734;-9.138;2023-08-21T14:18:19;6.30;;;2.70;;
82163;SDS011;71736;38.734;-9.138;2023-08-21T14:20:45;7.90;;;3.00;;
82163;SDS011;71736;38.734;-9.138;2023-08-21T14:23:10;5.10;;;2.80;;
82163;SDS011;71736;38.734;-9.138;2023-08-21T14:25:36;6.90;;;3.00;;
82163;SDS011;71736;38.734;-9.138;2023-08-21T14:28:02;9.10;;;3.40;;
82163;SDS011;71736;38.734;-9.138;2023-08-21T14:30:28;6.60;;;2.90;;
82163;SDS011;71736;38.734;-9.138;2023-08-21T14:32:54;9.30;;;4.00;;
82163;SDS011;71736;38.734;-9.138;2023-08-21T14:35:20;8.00;;;4.10;;
82163;SDS011;71736;38.734;-9.138;2023-08-21T14:37:45;6.20;;;3.50;;
82163;SDS011;71736;38.734;-9.138;2023-08-21T14:40:11;7.40;;;3.30;;
82163;SDS011;71736;38.734;-9.138;2023-08-21T14:42:37;9.60;;;4.10;;
82163;SDS011;71736;38.734;-9.138;2023-08-21T14:45:03;6.80;;;3.20;;
82163;SDS011;71736;38.734;-9.138;2023-08-21T14:47:29;6.90;;;3.00;;
82163;SDS011;71736;38.734;-9.138;2023-08-21T14:49:56;9.70;;;3.60;;
82163;SDS011;71736;38.734;-9.138;2023-08-21T14:52:22;6.90;;;3.10;;
82163;SDS011;71736;38.734;-9.138;2023-08-21T14:57:15;7.70;;;3.70;;
82163;SDS011;71736;38.734;-9.138;2023-08-21T14:59:41;6.50;;;4.40;;
82163;SDS011;71736;38.734;-9.138;2023-08-21T15:02:06;8.80;;;3.80;;
82163;SDS011;71736;38.734;-9.138;2023-08-21T15:04:32;7.90;;;3.80;;
82163;SDS011;71736;38.734;-9.138;2023-08-21T15:06:58;8.40;;;3.90;;